sensor_id;sensor_type;location;lat;lon;timestamp;P1;durP1;ratioP1;P2;durP2;ratioP2
6282;SDS011;3174;53.486;9.568;2022-12-10T00:01:06;34.80;;;13.13;;
6282;SDS011;3174;53.486;9.568;2022-12-10T00:03:36;36.50;;;14.00;;
6282;SDS011;3174;53.486;9.568;2022-12-10T00:06:05;28.20;;;10.87;;
6282;SDS011;3174;53.486;9.568;2022-12-10T00:08:34;22.67;;;10.73;;
6282;SDS011;3174;53.486;9.568;2022-12-10T00:11:03;24.60;;;10.77;;
6282;SDS011;3174;53.486;9.568;2022-12-10T00:13:34;30.07;;;12.43;;
6282;SDS011;3174;53.486;9.568;2022-12-10T00:16:03;24.60;;;10.80;;
6282;SDS011;3174;53.486;9.568;2022-12-10T00:18:33;24.23;;;10.77;;
6282;SDS011;3174;53.486;9.568;2022-12-10T00:21:01;33.30;;;12.40;;
6282;SDS011;3174;53.486;9.568;2022-12-10T00:23:31;30.73;;;12.20;;
6282;SDS011;3174;53.486;9.568;2022-12-10T00:26:01;30.43;;;12.37;;
6282;SDS011;3174;53.486;9.568;2022-12-10T00:28:30;21.17;;;9.83;;
6282;SDS011;3174;53.486;9.568;2022-12-10T00:31:04;21.33;;;9.13;;
6282;SDS011;3174;53.486;9.568;2022-12-10T00:33:32;24.87;;;9.23;;
6282;SDS011;3174;53.486;9.568;2022-12-10T00:36:01;22.70;;;9.13;;
6282;SDS011;3174;53.486;9.568;2022-12-10T00:38:30;22.27;;;9.23;;
6282;SDS011;3174;53.486;9.568;2022-12-10T00:40:57;18.07;;;9.03;;
6282;SDS011;3174;53.486;9.568;2022-12-10T00:43:25;18.30;;;8.90;;
6282;SDS011;3174;53.486;9.568;2022-12-10T00:45:54;18.47;;;8.73;;
6282;SDS011;3174;53.486;9.568;2022-12-10T00:48:23;19.00;;;9.07;;
6282;SDS011;3174;53.486;9.568;2022-12-10T00:50:55;19.50;;;8.83;;
6282;SDS011;3174;53.486;9.568;2022-12-10T00:53:24;23.80;;;9.80;;
6282;SDS011;3174;53.486;9.568;2022-12-10T00:55:52;21.43;;;10.20;;
6282;SDS011;3174;53.486;9.568;2022-12-10T00:58:20;20.20;;;9.10;;
6282;SDS011;3174;53.486;9.568;2022-12-10T01:00:48;18.07;;;8.30;;
6282;SDS011;3174;53.486;9.568;2022-12-10T01:03:16;16.97;;;8.23;;
6282;SDS011;3174;53.486;9.568;2022-12-10T01:05:46;16.33;;;7.20;;
6282;SDS011;3174;53.486;9.568;2022-12-10T01:08:14;22.23;;;8.17;;
6282;SDS011;3174;53.486;9.568;2022-12-10T01:10:42;19.80;;;8.80;;
6282;SDS011;3174;53.486;9.568;2022-12-10T01:13:10;14.93;;;6.93;;
6282;SDS011;3174;53.486;9.568;2022-12-10T01:15:37;17.40;;;8.07;;
6282;SDS011;3174;53.486;9.568;2022-12-10T01:18:06;18.77;;;8.60;;
6282;SDS011;3174;53.486;9.568;2022-12-10T01:20:34;16.33;;;7.73;;
6282;SDS011;3174;53.486;9.568;2022-12-10T01:23:05;17.63;;;8.47;;
6282;SDS011;3174;53.486;9.568;2022-12-10T01:25:33;20.87;;;9.43;;
6282;SDS011;3174;53.486;9.568;2022-12-10T01:28:01;14.73;;;7.47;;
6282;SDS011;3174;53.486;9.568;2022-12-10T01:30:29;12.97;;;6.77;;
6282;SDS011;3174;53.486;9.568;2022-12-10T01:32:57;17.40;;;8.07;;
6282;SDS011;3174;53.486;9.568;2022-12-10T01:35:25;16.37;;;7.13;;
6282;SDS011;3174;53.486;9.568;2022-12-10T01:37:53;17.93;;;8.47;;
6282;SDS011;3174;53.486;9.568;2022-12-10T01:40:22;17.73;;;8.67;;
6282;SDS011;3174;53.486;9.568;2022-12-10T01:42:51;17.50;;;8.10;;
6282;SDS011;3174;53.486;9.568;2022-12-10T01:45:27;18.50;;;9.20;;
6282;SDS011;3174;53.486;9.568;2022-12-10T01:47:56;20.37;;;8.93;;
6282;SDS011;3174;53.486;9.568;2022-12-10T01:50:28;18.53;;;8.23;;
6282;SDS011;3174;53.486;9.568;2022-12-10T01:52:56;15.70;;;8.30;;
6282;SDS011;3174;53.486;9.568;2022-12-10T01:55:39;15.10;;;7.67;;
6282;SDS011;3174;53.486;9.568;2022-12-10T01:58:09;16.20;;;7.90;;
6282;SDS011;3174;53.486;9.568;2022-12-10T02:00:38;14.20;;;7.53;;
6282;SDS011;3174;53.486;9.568;2022-12-10T02:03:13;14.70;;;6.67;;
6282;SDS011;3174;53.486;9.568;2022-12-10T02:05:44;15.40;;;8.17;;
6282;SDS011;3174;53.486;9.568;2022-12-10T02:08:19;13.83;;;7.07;;
6282;SDS011;3174;53.486;9.568;2022-12-10T02:10:57;16.87;;;7.33;;
6282;SDS011;3174;53.486;9.568;2022-12-10T02:13:28;15.17;;;7.60;;
6282;SDS011;3174;53.486;9.568;2022-12-10T02:16:00;16.10;;;6.97;;
6282;SDS011;3174;53.486;9.568;2022-12-10T02:18:31;18.47;;;8.37;;
6282;SDS011;3174;53.486;9.568;2022-12-10T02:21:03;16.63;;;7.80;;
6282;SDS011;3174;53.486;9.568;2022-12-10T02:23:35;14.67;;;6.60;;
6282;SDS011;3174;53.486;9.568;2022-12-10T02:26:06;15.20;;;6.80;;
6282;SDS011;3174;53.486;9.568;2022-12-10T02:28:39;14.67;;;7.43;;
6282;SDS011;3174;53.486;9.568;2022-12-10T02:31:13;14.33;;;7.43;;
6282;SDS011;3174;53.486;9.568;2022-12-10T02:33:44;15.07;;;6.83;;
6282;SDS011;3174;53.486;9.568;2022-12-10T02:36:15;20.13;;;8.77;;
6282;SDS011;3174;53.486;9.568;2022-12-10T02:38:44;13.97;;;7.43;;
6282;SDS011;3174;53.486;9.568;2022-12-10T02:41:13;15.70;;;8.30;;
6282;SDS011;3174;53.486;9.568;2022-12-10T02:43:43;14.37;;;7.77;;
6282;SDS011;3174;53.486;9.568;2022-12-10T02:46:15;14.97;;;7.07;;
6282;SDS011;3174;53.486;9.568;2022-12-10T02:48:43;19.80;;;9.20;;
6282;SDS011;3174;53.486;9.568;2022-12-10T02:51:12;19.17;;;9.10;;
6282;SDS011;3174;53.486;9.568;2022-12-10T02:53:41;13.83;;;6.60;;
6282;SDS011;3174;53.486;9.568;2022-12-10T02:56:13;13.90;;;5.93;;
6282;SDS011;3174;53.486;9.568;2022-12-10T02:58:47;16.83;;;7.97;;
6282;SDS011;3174;53.486;9.568;2022-12-10T03:01:25;14.27;;;7.13;;
6282;SDS011;3174;53.486;9.568;2022-12-10T03:03:56;16.40;;;7.47;;
6282;SDS011;3174;53.486;9.568;2022-12-10T03:06:27;15.90;;;7.70;;
6282;SDS011;3174;53.486;9.568;2022-12-10T03:08:59;13.27;;;7.00;;
6282;SDS011;3174;53.486;9.568;2022-12-10T03:11:30;16.83;;;7.23;;
6282;SDS011;3174;53.486;9.568;2022-12-10T03:13:58;17.33;;;8.83;;
6282;SDS011;3174;53.486;9.568;2022-12-10T03:16:31;17.73;;;8.83;;
6282;SDS011;3174;53.486;9.568;2022-12-10T03:19:03;17.43;;;7.50;;
6282;SDS011;3174;53.486;9.568;2022-12-10T03:21:34;14.97;;;8.00;;
6282;SDS011;3174;53.486;9.568;2022-12-10T03:24:04;14.63;;;6.53;;
6282;SDS011;3174;53.486;9.568;2022-12-10T03:26:33;15.20;;;7.67;;
6282;SDS011;3174;53.486;9.568;2022-12-10T03:29:02;14.60;;;6.97;;
6282;SDS011;3174;53.486;9.568;2022-12-10T03:31:34;17.33;;;7.10;;
6282;SDS011;3174;53.486;9.568;2022-12-10T03:34:02;18.97;;;8.57;;
6282;SDS011;3174;53.486;9.568;2022-12-10T03:36:32;19.57;;;8.37;;
6282;SDS011;3174;53.486;9.568;2022-12-10T03:39:00;15.30;;;7.00;;
6282;SDS011;3174;53.486;9.568;2022-12-10T03:41:28;15.50;;;7.03;;
6282;SDS011;3174;53.486;9.568;2022-12-10T03:43:57;13.33;;;7.23;;
6282;SDS011;3174;53.486;9.568;2022-12-10T03:46:26;13.70;;;6.83;;
6282;SDS011;3174;53.486;9.568;2022-12-10T03:48:58;17.97;;;8.10;;
6282;SDS011;3174;53.486;9.568;2022-12-10T03:51:27;13.37;;;6.90;;
6282;SDS011;3174;53.486;9.568;2022-12-10T03:53:55;15.17;;;7.87;;
6282;SDS011;3174;53.486;9.568;2022-12-10T03:56:23;16.33;;;7.80;;
6282;SDS011;3174;53.486;9.568;2022-12-10T03:58:51;13.70;;;7.07;;
6282;SDS011;3174;53.486;9.568;2022-12-10T04:01:19;12.17;;;6.07;;
6282;SDS011;3174;53.486;9.568;2022-12-10T04:03:46;15.97;;;7.57;;
6282;SDS011;3174;53.486;9.568;2022-12-10T04:06:17;15.77;;;7.30;;
6282;SDS011;3174;53.486;9.568;2022-12-10T04:08:47;17.47;;;6.90;;
6282;SDS011;3174;53.486;9.568;2022-12-10T04:11:23;20.30;;;10.17;;
6282;SDS011;3174;53.486;9.568;2022-12-10T04:13:51;18.57;;;8.97;;
6282;SDS011;3174;53.486;9.568;2022-12-10T04:16:37;18.17;;;8.60;;
6282;SDS011;3174;53.486;9.568;2022-12-10T04:19:06;14.03;;;7.00;;
6282;SDS011;3174;53.486;9.568;2022-12-10T04:21:36;18.63;;;7.37;;
6282;SDS011;3174;53.486;9.568;2022-12-10T04:24:24;20.87;;;9.47;;
6282;SDS011;3174;53.486;9.568;2022-12-10T04:27:10;17.50;;;8.03;;
6282;SDS011;3174;53.486;9.568;2022-12-10T04:29:39;14.83;;;7.80;;
6282;SDS011;3174;53.486;9.568;2022-12-10T04:32:07;19.30;;;8.33;;
6282;SDS011;3174;53.486;9.568;2022-12-10T04:34:35;17.80;;;8.40;;
6282;SDS011;3174;53.486;9.568;2022-12-10T04:37:04;18.27;;;8.73;;
6282;SDS011;3174;53.486;9.568;2022-12-10T04:39:32;15.70;;;7.77;;
6282;SDS011;3174;53.486;9.568;2022-12-10T04:42:00;12.33;;;7.10;;
6282;SDS011;3174;53.486;9.568;2022-12-10T04:44:28;14.30;;;6.70;;
6282;SDS011;3174;53.486;9.568;2022-12-10T04:46:56;17.20;;;7.90;;
6282;SDS011;3174;53.486;9.568;2022-12-10T04:49:25;14.13;;;7.00;;
6282;SDS011;3174;53.486;9.568;2022-12-10T04:51:53;14.60;;;6.80;;
6282;SDS011;3174;53.486;9.568;2022-12-10T04:54:23;15.60;;;8.50;;
6282;SDS011;3174;53.486;9.568;2022-12-10T04:56:51;13.30;;;7.17;;
6282;SDS011;3174;53.486;9.568;2022-12-10T04:59:19;12.27;;;6.57;;
6282;SDS011;3174;53.486;9.568;2022-12-10T05:01:47;12.87;;;6.83;;
6282;SDS011;3174;53.486;9.568;2022-12-10T05:04:15;16.63;;;7.47;;
6282;SDS011;3174;53.486;9.568;2022-12-10T05:06:44;15.60;;;7.30;;
6282;SDS011;3174;53.486;9.568;2022-12-10T05:09:14;14.90;;;7.60;;
6282;SDS011;3174;53.486;9.568;2022-12-10T05:11:44;14.70;;;7.50;;
6282;SDS011;3174;53.486;9.568;2022-12-10T05:14:13;13.37;;;7.23;;
6282;SDS011;3174;53.486;9.568;2022-12-10T05:16:42;15.07;;;7.87;;
6282;SDS011;3174;53.486;9.568;2022-12-10T05:19:10;18.93;;;8.10;;
6282;SDS011;3174;53.486;9.568;2022-12-10T05:21:38;15.27;;;7.70;;
6282;SDS011;3174;53.486;9.568;2022-12-10T05:24:23;12.80;;;6.60;;
6282;SDS011;3174;53.486;9.568;2022-12-10T05:26:53;13.50;;;6.47;;
6282;SDS011;3174;53.486;9.568;2022-12-10T05:29:21;14.10;;;6.53;;
6282;SDS011;3174;53.486;9.568;2022-12-10T05:31:49;12.40;;;6.63;;
6282;SDS011;3174;53.486;9.568;2022-12-10T05:34:17;14.07;;;7.23;;
6282;SDS011;3174;53.486;9.568;2022-12-10T05:36:45;16.57;;;6.93;;
6282;SDS011;3174;53.486;9.568;2022-12-10T05:39:13;14.10;;;6.53;;
6282;SDS011;3174;53.486;9.568;2022-12-10T05:41:41;13.43;;;7.10;;
6282;SDS011;3174;53.486;9.568;2022-12-10T05:44:11;12.30;;;7.53;;
6282;SDS011;3174;53.486;9.568;2022-12-10T05:46:39;15.07;;;7.60;;
6282;SDS011;3174;53.486;9.568;2022-12-10T05:49:08;12.20;;;6.20;;
6282;SDS011;3174;53.486;9.568;2022-12-10T05:51:37;14.33;;;6.53;;
6282;SDS011;3174;53.486;9.568;2022-12-10T05:54:05;11.60;;;5.63;;
6282;SDS011;3174;53.486;9.568;2022-12-10T05:56:36;14.00;;;6.70;;
6282;SDS011;3174;53.486;9.568;2022-12-10T05:59:04;12.43;;;5.97;;
6282;SDS011;3174;53.486;9.568;2022-12-10T06:01:41;12.00;;;6.30;;
6282;SDS011;3174;53.486;9.568;2022-12-10T06:04:09;13.03;;;7.63;;
6282;SDS011;3174;53.486;9.568;2022-12-10T06:06:37;14.13;;;6.30;;
6282;SDS011;3174;53.486;9.568;2022-12-10T06:09:07;14.30;;;7.23;;
6282;SDS011;3174;53.486;9.568;2022-12-10T06:11:38;14.47;;;6.33;;
6282;SDS011;3174;53.486;9.568;2022-12-10T06:14:06;13.57;;;7.50;;
6282;SDS011;3174;53.486;9.568;2022-12-10T06:16:34;19.10;;;8.37;;
6282;SDS011;3174;53.486;9.568;2022-12-10T06:19:03;15.30;;;7.73;;
6282;SDS011;3174;53.486;9.568;2022-12-10T06:21:31;14.37;;;6.67;;
6282;SDS011;3174;53.486;9.568;2022-12-10T06:24:00;16.10;;;7.20;;
6282;SDS011;3174;53.486;9.568;2022-12-10T06:26:28;13.17;;;6.90;;
6282;SDS011;3174;53.486;9.568;2022-12-10T06:28:56;13.23;;;6.93;;
6282;SDS011;3174;53.486;9.568;2022-12-10T06:31:24;15.60;;;7.97;;
6282;SDS011;3174;53.486;9.568;2022-12-10T06:33:52;17.83;;;8.93;;
6282;SDS011;3174;53.486;9.568;2022-12-10T06:36:22;13.27;;;7.50;;
6282;SDS011;3174;53.486;9.568;2022-12-10T06:38:50;17.03;;;7.67;;
6282;SDS011;3174;53.486;9.568;2022-12-10T06:41:18;13.90;;;7.60;;
6282;SDS011;3174;53.486;9.568;2022-12-10T06:43:47;15.10;;;7.50;;
6282;SDS011;3174;53.486;9.568;2022-12-10T06:46:16;19.20;;;9.77;;
6282;SDS011;3174;53.486;9.568;2022-12-10T06:48:45;16.50;;;6.93;;
6282;SDS011;3174;53.486;9.568;2022-12-10T06:51:13;19.67;;;10.13;;
6282;SDS011;3174;53.486;9.568;2022-12-10T06:53:43;14.53;;;7.90;;
6282;SDS011;3174;53.486;9.568;2022-12-10T06:56:12;15.20;;;7.70;;
6282;SDS011;3174;53.486;9.568;2022-12-10T06:58:40;14.37;;;7.70;;
6282;SDS011;3174;53.486;9.568;2022-12-10T07:01:11;13.53;;;6.93;;
6282;SDS011;3174;53.486;9.568;2022-12-10T07:03:41;12.70;;;6.77;;
6282;SDS011;3174;53.486;9.568;2022-12-10T07:06:10;11.93;;;6.93;;
6282;SDS011;3174;53.486;9.568;2022-12-10T07:08:38;13.83;;;7.23;;
6282;SDS011;3174;53.486;9.568;2022-12-10T07:11:09;14.17;;;7.60;;
6282;SDS011;3174;53.486;9.568;2022-12-10T07:13:39;15.70;;;7.97;;
6282;SDS011;3174;53.486;9.568;2022-12-10T07:16:11;9.90;;;6.40;;
6282;SDS011;3174;53.486;9.568;2022-12-10T07:18:40;19.97;;;7.60;;
6282;SDS011;3174;53.486;9.568;2022-12-10T07:21:15;15.10;;;7.43;;
6282;SDS011;3174;53.486;9.568;2022-12-10T07:23:44;12.63;;;6.77;;
6282;SDS011;3174;53.486;9.568;2022-12-10T07:26:13;12.13;;;6.37;;
6282;SDS011;3174;53.486;9.568;2022-12-10T07:28:41;12.90;;;7.13;;
6282;SDS011;3174;53.486;9.568;2022-12-10T07:31:18;12.23;;;7.00;;
6282;SDS011;3174;53.486;9.568;2022-12-10T07:33:46;15.57;;;8.70;;
6282;SDS011;3174;53.486;9.568;2022-12-10T07:36:14;16.27;;;8.30;;
6282;SDS011;3174;53.486;9.568;2022-12-10T07:38:42;12.23;;;7.40;;
6282;SDS011;3174;53.486;9.568;2022-12-10T07:41:11;13.47;;;6.30;;
6282;SDS011;3174;53.486;9.568;2022-12-10T07:43:41;15.23;;;7.63;;
6282;SDS011;3174;53.486;9.568;2022-12-10T07:46:11;14.77;;;8.00;;
6282;SDS011;3174;53.486;9.568;2022-12-10T07:48:40;14.00;;;7.23;;
6282;SDS011;3174;53.486;9.568;2022-12-10T07:51:09;12.13;;;6.80;;
6282;SDS011;3174;53.486;9.568;2022-12-10T07:53:37;15.13;;;7.97;;
6282;SDS011;3174;53.486;9.568;2022-12-10T07:56:06;13.90;;;7.83;;
6282;SDS011;3174;53.486;9.568;2022-12-10T07:58:34;13.70;;;7.63;;
6282;SDS011;3174;53.486;9.568;2022-12-10T08:01:07;15.97;;;8.30;;
6282;SDS011;3174;53.486;9.568;2022-12-10T08:03:35;18.27;;;9.07;;
6282;SDS011;3174;53.486;9.568;2022-12-10T08:06:04;12.23;;;6.77;;
6282;SDS011;3174;53.486;9.568;2022-12-10T08:08:33;19.47;;;9.47;;
6282;SDS011;3174;53.486;9.568;2022-12-10T08:11:01;18.13;;;8.67;;
6282;SDS011;3174;53.486;9.568;2022-12-10T08:13:30;11.47;;;7.17;;
6282;SDS011;3174;53.486;9.568;2022-12-10T08:16:00;20.13;;;10.07;;
6282;SDS011;3174;53.486;9.568;2022-12-10T08:18:30;17.70;;;8.67;;
6282;SDS011;3174;53.486;9.568;2022-12-10T08:21:02;16.10;;;9.03;;
6282;SDS011;3174;53.486;9.568;2022-12-10T08:23:31;18.60;;;8.60;;
6282;SDS011;3174;53.486;9.568;2022-12-10T08:26:02;18.30;;;9.57;;
6282;SDS011;3174;53.486;9.568;2022-12-10T08:28:31;11.70;;;7.03;;
6282;SDS011;3174;53.486;9.568;2022-12-10T08:30:59;12.50;;;7.27;;
6282;SDS011;3174;53.486;9.568;2022-12-10T08:33:27;12.53;;;7.40;;
6282;SDS011;3174;53.486;9.568;2022-12-10T08:35:58;16.47;;;9.00;;
6282;SDS011;3174;53.486;9.568;2022-12-10T08:38:26;16.60;;;8.20;;
6282;SDS011;3174;53.486;9.568;2022-12-10T08:40:54;15.63;;;8.23;;
6282;SDS011;3174;53.486;9.568;2022-12-10T08:43:22;13.97;;;7.90;;
6282;SDS011;3174;53.486;9.568;2022-12-10T08:45:50;16.27;;;7.73;;
6282;SDS011;3174;53.486;9.568;2022-12-10T08:48:18;14.73;;;7.30;;
6282;SDS011;3174;53.486;9.568;2022-12-10T08:50:46;14.93;;;7.20;;
6282;SDS011;3174;53.486;9.568;2022-12-10T08:53:16;10.20;;;5.47;;
6282;SDS011;3174;53.486;9.568;2022-12-10T08:55:44;11.57;;;6.67;;
6282;SDS011;3174;53.486;9.568;2022-12-10T08:58:14;13.73;;;6.50;;
6282;SDS011;3174;53.486;9.568;2022-12-10T09:00:42;13.90;;;7.10;;
6282;SDS011;3174;53.486;9.568;2022-12-10T09:03:10;11.57;;;6.30;;
6282;SDS011;3174;53.486;9.568;2022-12-10T09:05:39;12.80;;;6.67;;
6282;SDS011;3174;53.486;9.568;2022-12-10T09:08:07;12.50;;;6.97;;
6282;SDS011;3174;53.486;9.568;2022-12-10T09:10:37;11.90;;;6.67;;
6282;SDS011;3174;53.486;9.568;2022-12-10T09:13:05;11.60;;;6.20;;
6282;SDS011;3174;53.486;9.568;2022-12-10T09:15:33;16.07;;;8.03;;
6282;SDS011;3174;53.486;9.568;2022-12-10T09:18:01;11.77;;;6.07;;
6282;SDS011;3174;53.486;9.568;2022-12-10T09:20:29;13.77;;;7.33;;
6282;SDS011;3174;53.486;9.568;2022-12-10T09:22:57;13.63;;;6.70;;
6282;SDS011;3174;53.486;9.568;2022-12-10T09:25:25;15.53;;;6.90;;
6282;SDS011;3174;53.486;9.568;2022-12-10T09:27:54;10.33;;;6.40;;
6282;SDS011;3174;53.486;9.568;2022-12-10T09:30:22;11.23;;;6.27;;
6282;SDS011;3174;53.486;9.568;2022-12-10T09:32:50;14.47;;;6.87;;
6282;SDS011;3174;53.486;9.568;2022-12-10T09:35:18;15.77;;;7.90;;
6282;SDS011;3174;53.486;9.568;2022-12-10T09:37:46;15.80;;;8.47;;
6282;SDS011;3174;53.486;9.568;2022-12-10T09:40:15;17.30;;;8.10;;
6282;SDS011;3174;53.486;9.568;2022-12-10T09:42:46;17.90;;;8.03;;
6282;SDS011;3174;53.486;9.568;2022-12-10T09:45:19;13.10;;;7.77;;
6282;SDS011;3174;53.486;9.568;2022-12-10T09:47:53;14.10;;;7.23;;
6282;SDS011;3174;53.486;9.568;2022-12-10T09:50:26;11.47;;;6.30;;
6282;SDS011;3174;53.486;9.568;2022-12-10T09:52:56;15.93;;;8.07;;
6282;SDS011;3174;53.486;9.568;2022-12-10T09:55:31;14.77;;;6.27;;
6282;SDS011;3174;53.486;9.568;2022-12-10T09:58:01;15.17;;;7.67;;
6282;SDS011;3174;53.486;9.568;2022-12-10T10:00:32;13.67;;;7.33;;
6282;SDS011;3174;53.486;9.568;2022-12-10T10:03:02;16.67;;;7.93;;
6282;SDS011;3174;53.486;9.568;2022-12-10T10:05:31;14.20;;;7.60;;
6282;SDS011;3174;53.486;9.568;2022-12-10T10:08:02;11.13;;;6.57;;
6282;SDS011;3174;53.486;9.568;2022-12-10T10:10:32;11.77;;;5.97;;
6282;SDS011;3174;53.486;9.568;2022-12-10T10:13:09;14.80;;;7.33;;
6282;SDS011;3174;53.486;9.568;2022-12-10T10:15:42;10.73;;;6.77;;
6282;SDS011;3174;53.486;9.568;2022-12-10T10:18:13;15.50;;;6.83;;
6282;SDS011;3174;53.486;9.568;2022-12-10T10:20:43;12.63;;;6.20;;
6282;SDS011;3174;53.486;9.568;2022-12-10T10:23:12;13.80;;;7.03;;
6282;SDS011;3174;53.486;9.568;2022-12-10T10:25:41;11.97;;;6.70;;
6282;SDS011;3174;53.486;9.568;2022-12-10T10:28:10;13.27;;;7.20;;
6282;SDS011;3174;53.486;9.568;2022-12-10T10:30:42;12.73;;;6.53;;
6282;SDS011;3174;53.486;9.568;2022-12-10T10:33:12;14.93;;;6.90;;
6282;SDS011;3174;53.486;9.568;2022-12-10T10:35:42;15.60;;;6.53;;
6282;SDS011;3174;53.486;9.568;2022-12-10T10:38:16;10.93;;;6.03;;
6282;SDS011;3174;53.486;9.568;2022-12-10T10:40:48;10.03;;;6.07;;
6282;SDS011;3174;53.486;9.568;2022-12-10T10:43:19;14.93;;;7.50;;
6282;SDS011;3174;53.486;9.568;2022-12-10T10:45:50;15.67;;;6.77;;
6282;SDS011;3174;53.486;9.568;2022-12-10T10:48:20;14.27;;;7.57;;
6282;SDS011;3174;53.486;9.568;2022-12-10T10:50:50;9.83;;;5.77;;
6282;SDS011;3174;53.486;9.568;2022-12-10T10:53:20;17.27;;;7.60;;
6282;SDS011;3174;53.486;9.568;2022-12-10T10:55:53;11.47;;;6.70;;
6282;SDS011;3174;53.486;9.568;2022-12-10T10:58:23;14.17;;;6.20;;
6282;SDS011;3174;53.486;9.568;2022-12-10T11:00:57;14.47;;;6.93;;
6282;SDS011;3174;53.486;9.568;2022-12-10T11:03:27;12.63;;;6.70;;
6282;SDS011;3174;53.486;9.568;2022-12-10T11:05:56;13.23;;;5.87;;
6282;SDS011;3174;53.486;9.568;2022-12-10T11:08:25;9.33;;;5.80;;
6282;SDS011;3174;53.486;9.568;2022-12-10T11:10:56;12.67;;;5.93;;
6282;SDS011;3174;53.486;9.568;2022-12-10T11:13:29;11.20;;;6.10;;
6282;SDS011;3174;53.486;9.568;2022-12-10T11:16:01;10.90;;;6.23;;
6282;SDS011;3174;53.486;9.568;2022-12-10T11:18:36;14.73;;;6.77;;
6282;SDS011;3174;53.486;9.568;2022-12-10T11:21:06;12.73;;;6.63;;
6282;SDS011;3174;53.486;9.568;2022-12-10T11:23:43;11.67;;;6.07;;
6282;SDS011;3174;53.486;9.568;2022-12-10T11:29:10;13.87;;;6.63;;
6282;SDS011;3174;53.486;9.568;2022-12-10T11:31:53;11.97;;;7.53;;
6282;SDS011;3174;53.486;9.568;2022-12-10T11:34:30;11.20;;;5.93;;
6282;SDS011;3174;53.486;9.568;2022-12-10T11:37:08;10.03;;;6.17;;
6282;SDS011;3174;53.486;9.568;2022-12-10T11:39:47;11.73;;;7.10;;
6282;SDS011;3174;53.486;9.568;2022-12-10T11:42:24;13.67;;;6.73;;
6282;SDS011;3174;53.486;9.568;2022-12-10T11:44:58;11.47;;;6.17;;
6282;SDS011;3174;53.486;9.568;2022-12-10T11:47:35;14.23;;;6.10;;
6282;SDS011;3174;53.486;9.568;2022-12-10T11:50:12;12.57;;;6.37;;
6282;SDS011;3174;53.486;9.568;2022-12-10T11:52:51;13.70;;;6.87;;
6282;SDS011;3174;53.486;9.568;2022-12-10T11:55:36;14.10;;;6.00;;
6282;SDS011;3174;53.486;9.568;2022-12-10T12:01:01;11.60;;;5.80;;
6282;SDS011;3174;53.486;9.568;2022-12-10T12:03:40;16.83;;;7.33;;
6282;SDS011;3174;53.486;9.568;2022-12-10T12:06:33;15.43;;;6.67;;
6282;SDS011;3174;53.486;9.568;2022-12-10T12:09:19;10.60;;;5.93;;
6282;SDS011;3174;53.486;9.568;2022-12-10T12:11:55;8.17;;;5.53;;
6282;SDS011;3174;53.486;9.568;2022-12-10T12:14:32;15.50;;;6.23;;
6282;SDS011;3174;53.486;9.568;2022-12-10T12:17:04;13.10;;;6.93;;
6282;SDS011;3174;53.486;9.568;2022-12-10T12:19:39;13.47;;;7.23;;
6282;SDS011;3174;53.486;9.568;2022-12-10T12:22:13;8.50;;;5.60;;
6282;SDS011;3174;53.486;9.568;2022-12-10T12:24:42;8.80;;;5.60;;
6282;SDS011;3174;53.486;9.568;2022-12-10T12:27:16;10.00;;;5.23;;
6282;SDS011;3174;53.486;9.568;2022-12-10T12:29:51;12.47;;;6.33;;
6282;SDS011;3174;53.486;9.568;2022-12-10T12:32:27;9.90;;;5.33;;
6282;SDS011;3174;53.486;9.568;2022-12-10T12:35:02;8.20;;;5.00;;
6282;SDS011;3174;53.486;9.568;2022-12-10T12:37:32;10.93;;;5.20;;
6282;SDS011;3174;53.486;9.568;2022-12-10T12:40:08;10.30;;;5.60;;
6282;SDS011;3174;53.486;9.568;2022-12-10T12:42:40;16.00;;;6.20;;
6282;SDS011;3174;53.486;9.568;2022-12-10T12:45:13;11.80;;;6.13;;
6282;SDS011;3174;53.486;9.568;2022-12-10T12:47:45;12.50;;;6.13;;
6282;SDS011;3174;53.486;9.568;2022-12-10T12:50:22;10.13;;;5.60;;
6282;SDS011;3174;53.486;9.568;2022-12-10T12:52:54;11.47;;;5.90;;
6282;SDS011;3174;53.486;9.568;2022-12-10T12:55:26;9.17;;;5.13;;
6282;SDS011;3174;53.486;9.568;2022-12-10T12:58:00;10.47;;;4.70;;
6282;SDS011;3174;53.486;9.568;2022-12-10T13:00:37;8.17;;;4.97;;
6282;SDS011;3174;53.486;9.568;2022-12-10T13:03:08;11.13;;;5.87;;
6282;SDS011;3174;53.486;9.568;2022-12-10T13:05:47;10.67;;;5.63;;
6282;SDS011;3174;53.486;9.568;2022-12-10T13:08:24;9.13;;;5.43;;
6282;SDS011;3174;53.486;9.568;2022-12-10T13:10:56;12.27;;;6.63;;
6282;SDS011;3174;53.486;9.568;2022-12-10T13:13:28;11.07;;;5.20;;
6282;SDS011;3174;53.486;9.568;2022-12-10T13:21:57;11.97;;;6.40;;
6282;SDS011;3174;53.486;9.568;2022-12-10T13:24:45;10.47;;;4.77;;
6282;SDS011;3174;53.486;9.568;2022-12-10T13:27:15;11.07;;;5.33;;
6282;SDS011;3174;53.486;9.568;2022-12-10T13:29:46;10.80;;;5.90;;
6282;SDS011;3174;53.486;9.568;2022-12-10T13:32:22;16.07;;;6.73;;
6282;SDS011;3174;53.486;9.568;2022-12-10T13:37:55;14.90;;;8.27;;
6282;SDS011;3174;53.486;9.568;2022-12-10T13:40:26;9.43;;;5.60;;
6282;SDS011;3174;53.486;9.568;2022-12-10T13:42:56;12.27;;;5.63;;
6282;SDS011;3174;53.486;9.568;2022-12-10T13:45:42;11.37;;;5.73;;
6282;SDS011;3174;53.486;9.568;2022-12-10T13:51:07;12.23;;;6.43;;
6282;SDS011;3174;53.486;9.568;2022-12-10T13:53:44;14.13;;;7.00;;
6282;SDS011;3174;53.486;9.568;2022-12-10T13:56:21;9.47;;;5.50;;
6282;SDS011;3174;53.486;9.568;2022-12-10T13:58:55;16.93;;;6.63;;
6282;SDS011;3174;53.486;9.568;2022-12-10T14:01:32;9.57;;;5.53;;
6282;SDS011;3174;53.486;9.568;2022-12-10T14:04:13;10.93;;;5.70;;
6282;SDS011;3174;53.486;9.568;2022-12-10T14:06:50;9.53;;;5.53;;
6282;SDS011;3174;53.486;9.568;2022-12-10T14:09:21;14.33;;;6.30;;
6282;SDS011;3174;53.486;9.568;2022-12-10T14:11:53;12.10;;;6.80;;
6282;SDS011;3174;53.486;9.568;2022-12-10T14:14:25;9.23;;;5.40;;
6282;SDS011;3174;53.486;9.568;2022-12-10T14:16:59;10.10;;;5.37;;
6282;SDS011;3174;53.486;9.568;2022-12-10T14:19:32;10.47;;;5.30;;
6282;SDS011;3174;53.486;9.568;2022-12-10T14:22:03;10.77;;;5.43;;
6282;SDS011;3174;53.486;9.568;2022-12-10T14:24:34;12.23;;;6.23;;
6282;SDS011;3174;53.486;9.568;2022-12-10T14:27:09;17.03;;;7.67;;
6282;SDS011;3174;53.486;9.568;2022-12-10T14:29:43;13.10;;;6.20;;
6282;SDS011;3174;53.486;9.568;2022-12-10T14:32:12;11.37;;;6.07;;
6282;SDS011;3174;53.486;9.568;2022-12-10T14:34:51;19.43;;;8.40;;
6282;SDS011;3174;53.486;9.568;2022-12-10T14:37:22;11.60;;;6.17;;
6282;SDS011;3174;53.486;9.568;2022-12-10T14:39:54;10.43;;;5.73;;
6282;SDS011;3174;53.486;9.568;2022-12-10T14:42:22;9.87;;;5.73;;
6282;SDS011;3174;53.486;9.568;2022-12-10T14:44:51;11.83;;;5.67;;
6282;SDS011;3174;53.486;9.568;2022-12-10T14:47:23;10.30;;;5.57;;
6282;SDS011;3174;53.486;9.568;2022-12-10T14:49:53;9.87;;;5.40;;
6282;SDS011;3174;53.486;9.568;2022-12-10T14:52:23;9.30;;;5.63;;
6282;SDS011;3174;53.486;9.568;2022-12-10T14:54:53;10.67;;;5.67;;
6282;SDS011;3174;53.486;9.568;2022-12-10T14:57:22;11.70;;;6.10;;
6282;SDS011;3174;53.486;9.568;2022-12-10T14:59:55;9.40;;;5.57;;
6282;SDS011;3174;53.486;9.568;2022-12-10T15:02:27;9.87;;;5.57;;
6282;SDS011;3174;53.486;9.568;2022-12-10T15:04:57;12.47;;;5.30;;
6282;SDS011;3174;53.486;9.568;2022-12-10T15:07:26;14.67;;;7.63;;
6282;SDS011;3174;53.486;9.568;2022-12-10T15:10:03;11.67;;;6.43;;
6282;SDS011;3174;53.486;9.568;2022-12-10T15:12:42;12.37;;;6.60;;
6282;SDS011;3174;53.486;9.568;2022-12-10T15:15:12;14.27;;;6.47;;
6282;SDS011;3174;53.486;9.568;2022-12-10T15:17:43;10.40;;;5.33;;
6282;SDS011;3174;53.486;9.568;2022-12-10T15:20:20;11.27;;;6.43;;
6282;SDS011;3174;53.486;9.568;2022-12-10T15:22:49;10.33;;;5.90;;
6282;SDS011;3174;53.486;9.568;2022-12-10T15:25:23;11.97;;;6.13;;
6282;SDS011;3174;53.486;9.568;2022-12-10T15:27:57;13.57;;;6.80;;
6282;SDS011;3174;53.486;9.568;2022-12-10T15:30:33;8.60;;;5.30;;
6282;SDS011;3174;53.486;9.568;2022-12-10T15:33:02;18.23;;;9.07;;
6282;SDS011;3174;53.486;9.568;2022-12-10T15:35:34;10.83;;;6.00;;
6282;SDS011;3174;53.486;9.568;2022-12-10T15:38:02;14.13;;;7.13;;
6282;SDS011;3174;53.486;9.568;2022-12-10T15:40:32;11.50;;;5.43;;
6282;SDS011;3174;53.486;9.568;2022-12-10T15:43:10;13.13;;;5.97;;